sensor_id;sensor_type;location;lat;lon;timestamp;temperature;humidity
7516;DHT22;3799;47.184;8.538;2022-08-21T00:01:20;17.30;99.90
7516;DHT22;3799;47.184;8.538;2022-08-21T00:03:46;17.00;99.90
7516;DHT22;3799;47.184;8.538;2022-08-21T00:06:12;17.00;99.90
7516;DHT22;3799;47.184;8.538;2022-08-21T00:08:40;17.00;99.90
7516;DHT22;3799;47.184;8.538;2022-08-21T00:11:06;17.10;99.90
7516;DHT22;3799;47.184;8.538;2022-08-21T00:13:32;17.00;99.90
7516;DHT22;3799;47.184;8.538;2022-08-21T00:15:58;17.00;99.90
7516;DHT22;3799;47.184;8.538;2022-08-21T00:18:24;17.00;99.90
7516;DHT22;3799;47.184;8.538;2022-08-21T00:20:50;17.00;99.90
7516;DHT22;3799;47.184;8.538;2022-08-21T00:23:16;17.00;99.90
7516;DHT22;3799;47.184;8.538;2022-08-21T00:25:42;16.80;99.90
7516;DHT22;3799;47.184;8.538;2022-08-21T00:28:08;17.00;99.90
7516;DHT22;3799;47.184;8.538;2022-08-21T00:30:34;16.80;99.90
7516;DHT22;3799;47.184;8.538;2022-08-21T00:33:00;17.20;99.90
7516;DHT22;3799;47.184;8.538;2022-08-21T00:35:30;16.90;99.90
7516;DHT22;3799;47.184;8.538;2022-08-21T00:37:57;16.90;99.90
7516;DHT22;3799;47.184;8.538;2022-08-21T00:40:25;17.00;99.90
7516;DHT22;3799;47.184;8.538;2022-08-21T00:42:52;17.00;99.90
7516;DHT22;3799;47.184;8.538;2022-08-21T00:45:17;16.90;99.90
7516;DHT22;3799;47.184;8.538;2022-08-21T00:47:43;16.80;99.90
7516;DHT22;3799;47.184;8.538;2022-08-21T00:50:09;17.10;99.90
7516;DHT22;3799;47.184;8.538;2022-08-21T00:52:36;16.90;99.90
7516;DHT22;3799;47.184;8.538;2022-08-21T00:55:03;16.70;99.90
7516;DHT22;3799;47.184;8.538;2022-08-21T00:57:30;16.70;99.90
7516;DHT22;3799;47.184;8.538;2022-08-21T00:59:57;16.80;99.90
7516;DHT22;3799;47.184;8.538;2022-08-21T01:02:24;16.90;99.90
7516;DHT22;3799;47.184;8.538;2022-08-21T01:04:51;17.00;99.90
7516;DHT22;3799;47.184;8.538;2022-08-21T01:07:16;16.80;99.90
7516;DHT22;3799;47.184;8.538;2022-08-21T01:09:42;17.00;99.90
7516;DHT22;3799;47.184;8.538;2022-08-21T01:12:08;16.60;99.90
7516;DHT22;3799;47.184;8.538;2022-08-21T01:14:34;16.80;99.90
7516;DHT22;3799;47.184;8.538;2022-08-21T01:17:00;16.80;99.90
7516;DHT22;3799;47.184;8.538;2022-08-21T01:19:28;16.70;99.90
7516;DHT22;3799;47.184;8.538;2022-08-21T01:21:54;16.80;99.90
7516;DHT22;3799;47.184;8.538;2022-08-21T01:24:20;16.90;99.90
7516;DHT22;3799;47.184;8.538;2022-08-21T01:26:46;17.00;99.90
7516;DHT22;3799;47.184;8.538;2022-08-21T01:29:16;16.50;99.90
7516;DHT22;3799;47.184;8.538;2022-08-21T01:31:45;16.70;99.90
7516;DHT22;3799;47.184;8.538;2022-08-21T01:34:12;16.70;99.90
7516;DHT22;3799;47.184;8.538;2022-08-21T01:36:39;16.70;99.90
7516;DHT22;3799;47.184;8.538;2022-08-21T01:39:19;16.60;99.90
7516;DHT22;3799;47.184;8.538;2022-08-21T01:41:44;16.80;99.90
7516;DHT22;3799;47.184;8.538;2022-08-21T01:44:10;16.70;99.90
7516;DHT22;3799;47.184;8.538;2022-08-21T01:46:36;17.00;99.90
7516;DHT22;3799;47.184;8.538;2022-08-21T01:49:02;16.60;99.90
7516;DHT22;3799;47.184;8.538;2022-08-21T01:51:28;16.90;99.90
7516;DHT22;3799;47.184;8.538;2022-08-21T01:53:53;16.50;99.90
7516;DHT22;3799;47.184;8.538;2022-08-21T01:56:19;16.60;99.90
7516;DHT22;3799;47.184;8.538;2022-08-21T01:58:45;16.70;99.90
7516;DHT22;3799;47.184;8.538;2022-08-21T02:01:11;16.60;99.90
7516;DHT22;3799;47.184;8.538;2022-08-21T02:03:37;16.50;99.90
7516;DHT22;3799;47.184;8.538;2022-08-21T02:06:03;16.70;99.90
7516;DHT22;3799;47.184;8.538;2022-08-21T02:08:29;16.70;99.90
7516;DHT22;3799;47.184;8.538;2022-08-21T02:10:55;16.40;99.90
7516;DHT22;3799;47.184;8.538;2022-08-21T02:13:20;16.80;99.90
7516;DHT22;3799;47.184;8.538;2022-08-21T02:15:46;16.80;99.90
7516;DHT22;3799;47.184;8.538;2022-08-21T02:18:12;16.40;99.90
7516;DHT22;3799;47.184;8.538;2022-08-21T02:20:39;16.70;99.90
7516;DHT22;3799;47.184;8.538;2022-08-21T02:23:06;16.50;99.90
7516;DHT22;3799;47.184;8.538;2022-08-21T02:25:32;16.80;99.90
7516;DHT22;3799;47.184;8.538;2022-08-21T02:27:59;16.60;99.90
7516;DHT22;3799;47.184;8.538;2022-08-21T02:30:27;16.40;99.90
7516;DHT22;3799;47.184;8.538;2022-08-21T02:32:53;16.80;99.90
7516;DHT22;3799;47.184;8.538;2022-08-21T02:35:19;16.70;99.90
7516;DHT22;3799;47.184;8.538;2022-08-21T02:37:48;16.40;99.90
7516;DHT22;3799;47.184;8.538;2022-08-21T02:40:15;16.70;99.90
7516;DHT22;3799;47.184;8.538;2022-08-21T02:42:40;16.20;99.90
7516;DHT22;3799;47.184;8.538;2022-08-21T02:45:06;16.30;99.90
7516;DHT22;3799;47.184;8.538;2022-08-21T02:47:32;16.60;99.90
7516;DHT22;3799;47.184;8.538;2022-08-21T02:49:58;16.50;99.90
7516;DHT22;3799;47.184;8.538;2022-08-21T02:52:24;16.40;99.90
7516;DHT22;3799;47.184;8.538;2022-08-21T02:54:49;16.40;99.90
7516;DHT22;3799;47.184;8.538;2022-08-21T02:57:15;16.20;99.90
7516;DHT22;3799;47.184;8.538;2022-08-21T02:59:41;16.20;99.90
7516;DHT22;3799;47.184;8.538;2022-08-21T03:02:07;16.60;99.90
7516;DHT22;3799;47.184;8.538;2022-08-21T03:04:32;16.60;99.90
7516;DHT22;3799;47.184;8.538;2022-08-21T03:06:58;16.50;99.90
7516;DHT22;3799;47.184;8.538;2022-08-21T03:09:24;16.40;99.90
7516;DHT22;3799;47.184;8.538;2022-08-21T03:11:50;16.20;99.90
7516;DHT22;3799;47.184;8.538;2022-08-21T03:14:17;16.60;99.90
7516;DHT22;3799;47.184;8.538;2022-08-21T03:16:42;16.10;99.90
7516;DHT22;3799;47.184;8.538;2022-08-21T03:19:08;16.60;99.90
7516;DHT22;3799;47.184;8.538;2022-08-21T03:21:34;16.60;99.90
7516;DHT22;3799;47.184;8.538;2022-08-21T03:24:02;16.40;99.90
7516;DHT22;3799;47.184;8.538;2022-08-21T03:26:28;16.50;99.90
7516;DHT22;3799;47.184;8.538;2022-08-21T03:28:53;16.50;99.90
7516;DHT22;3799;47.184;8.538;2022-08-21T03:31:19;16.20;99.90
7516;DHT22;3799;47.184;8.538;2022-08-21T03:33:46;16.50;99.90
7516;DHT22;3799;47.184;8.538;2022-08-21T03:36:12;16.40;99.90
7516;DHT22;3799;47.184;8.538;2022-08-21T03:38:38;16.40;99.90
7516;DHT22;3799;47.184;8.538;2022-08-21T03:41:04;16.20;99.90
7516;DHT22;3799;47.184;8.538;2022-08-21T03:43:30;16.20;99.90
7516;DHT22;3799;47.184;8.538;2022-08-21T03:45:55;16.20;99.90
7516;DHT22;3799;47.184;8.538;2022-08-21T03:48:21;16.20;99.90
7516;DHT22;3799;47.184;8.538;2022-08-21T03:50:47;16.20;99.90
7516;DHT22;3799;47.184;8.538;2022-08-21T03:53:15;16.20;99.90
7516;DHT22;3799;47.184;8.538;2022-08-21T03:55:41;16.00;99.90
7516;DHT22;3799;47.184;8.538;2022-08-21T03:58:06;16.20;99.90
7516;DHT22;3799;47.184;8.538;2022-08-21T04:00:32;16.00;99.90
7516;DHT22;3799;47.184;8.538;2022-08-21T04:02:58;16.00;99.90
7516;DHT22;3799;47.184;8.538;2022-08-21T04:05:23;16.30;99.90
7516;DHT22;3799;47.184;8.538;2022-08-21T04:07:53;16.00;99.90
7516;DHT22;3799;47.184;8.538;2022-08-21T04:10:19;16.20;99.90
7516;DHT22;3799;47.184;8.538;2022-08-21T04:12:45;16.10;99.90
7516;DHT22;3799;47.184;8.538;2022-08-21T04:15:11;16.40;99.90
7516;DHT22;3799;47.184;8.538;2022-08-21T04:17:38;16.10;99.90
7516;DHT22;3799;47.184;8.538;2022-08-21T04:20:04;16.20;99.90
7516;DHT22;3799;47.184;8.538;2022-08-21T04:22:29;16.20;99.90
7516;DHT22;3799;47.184;8.538;2022-08-21T04:24:55;16.00;99.90
7516;DHT22;3799;47.184;8.538;2022-08-21T04:27:21;16.00;99.90
7516;DHT22;3799;47.184;8.538;2022-08-21T04:29:46;16.20;99.90
7516;DHT22;3799;47.184;8.538;2022-08-21T04:32:12;16.10;99.90
7516;DHT22;3799;47.184;8.538;2022-08-21T04:34:43;16.10;99.90
7516;DHT22;3799;47.184;8.538;2022-08-21T04:37:11;16.00;99.90
7516;DHT22;3799;47.184;8.538;2022-08-21T04:39:37;16.20;99.90
7516;DHT22;3799;47.184;8.538;2022-08-21T04:42:02;16.10;99.90
7516;DHT22;3799;47.184;8.538;2022-08-21T04:44:28;16.00;99.90
7516;DHT22;3799;47.184;8.538;2022-08-21T04:46:54;16.00;99.90
7516;DHT22;3799;47.184;8.538;2022-08-21T04:49:19;16.00;99.90
7516;DHT22;3799;47.184;8.538;2022-08-21T04:51:45;16.20;99.90
7516;DHT22;3799;47.184;8.538;2022-08-21T04:54:14;16.30;99.90
7516;DHT22;3799;47.184;8.538;2022-08-21T04:56:47;16.20;99.90
7516;DHT22;3799;47.184;8.538;2022-08-21T04:59:18;16.20;99.90
7516;DHT22;3799;47.184;8.538;2022-08-21T05:01:46;16.00;99.90
7516;DHT22;3799;47.184;8.538;2022-08-21T05:04:12;16.30;99.90
7516;DHT22;3799;47.184;8.538;2022-08-21T05:06:40;16.50;99.90
7516;DHT22;3799;47.184;8.538;2022-08-21T05:09:07;16.30;99.90
7516;DHT22;3799;47.184;8.538;2022-08-21T05:11:34;16.60;99.90
7516;DHT22;3799;47.184;8.538;2022-08-21T05:14:01;16.80;99.90
7516;DHT22;3799;47.184;8.538;2022-08-21T05:16:26;16.60;99.90
7516;DHT22;3799;47.184;8.538;2022-08-21T05:18:52;16.70;99.90
7516;DHT22;3799;47.184;8.538;2022-08-21T05:21:18;17.00;99.90
7516;DHT22;3799;47.184;8.538;2022-08-21T05:23:44;16.90;99.90
7516;DHT22;3799;47.184;8.538;2022-08-21T05:26:09;16.90;99.90
7516;DHT22;3799;47.184;8.538;2022-08-21T05:28:35;16.90;99.90
7516;DHT22;3799;47.184;8.538;2022-08-21T05:31:00;17.50;99.90
7516;DHT22;3799;47.184;8.538;2022-08-21T05:33:26;17.20;99.90
7516;DHT22;3799;47.184;8.538;2022-08-21T05:35:52;17.40;99.90
7516;DHT22;3799;47.184;8.538;2022-08-21T05:38:21;17.50;99.90
7516;DHT22;3799;47.184;8.538;2022-08-21T05:40:46;17.20;99.90
7516;DHT22;3799;47.184;8.538;2022-08-21T05:43:12;17.20;99.90
7516;DHT22;3799;47.184;8.538;2022-08-21T05:45:38;17.50;99.90
7516;DHT22;3799;47.184;8.538;2022-08-21T05:48:07;17.30;99.90
7516;DHT22;3799;47.184;8.538;2022-08-21T05:50:33;17.50;99.90
7516;DHT22;3799;47.184;8.538;2022-08-21T05:53:00;17.30;99.90
7516;DHT22;3799;47.184;8.538;2022-08-21T05:55:26;17.70;99.90
7516;DHT22;3799;47.184;8.538;2022-08-21T05:57:51;17.90;99.90
7516;DHT22;3799;47.184;8.538;2022-08-21T06:00:17;17.80;99.90
7516;DHT22;3799;47.184;8.538;2022-08-21T06:02:43;18.20;99.90
7516;DHT22;3799;47.184;8.538;2022-08-21T06:05:09;18.10;99.90
7516;DHT22;3799;47.184;8.538;2022-08-21T06:07:34;18.20;99.90
7516;DHT22;3799;47.184;8.538;2022-08-21T06:10:00;18.20;99.90
7516;DHT22;3799;47.184;8.538;2022-08-21T06:12:26;18.50;99.90
7516;DHT22;3799;47.184;8.538;2022-08-21T06:14:51;18.60;99.90
7516;DHT22;3799;47.184;8.538;2022-08-21T06:17:17;18.50;99.90
7516;DHT22;3799;47.184;8.538;2022-08-21T06:19:43;18.50;99.90
7516;DHT22;3799;47.184;8.538;2022-08-21T06:22:08;18.40;99.90
7516;DHT22;3799;47.184;8.538;2022-08-21T06:24:34;18.80;99.90
7516;DHT22;3799;47.184;8.538;2022-08-21T06:27:07;18.60;99.90
7516;DHT22;3799;47.184;8.538;2022-08-21T06:29:33;18.60;99.90
7516;DHT22;3799;47.184;8.538;2022-08-21T06:31:59;18.50;99.90
7516;DHT22;3799;47.184;8.538;2022-08-21T06:34:25;18.70;99.90
7516;DHT22;3799;47.184;8.538;2022-08-21T06:36:50;18.70;99.90
7516;DHT22;3799;47.184;8.538;2022-08-21T06:39:16;18.90;99.90
7516;DHT22;3799;47.184;8.538;2022-08-21T06:41:42;18.70;99.90
7516;DHT22;3799;47.184;8.538;2022-08-21T06:44:07;18.90;99.90
7516;DHT22;3799;47.184;8.538;2022-08-21T06:46:33;18.70;99.90
7516;DHT22;3799;47.184;8.538;2022-08-21T06:48:59;19.30;99.90
7516;DHT22;3799;47.184;8.538;2022-08-21T06:51:25;19.30;99.90
7516;DHT22;3799;47.184;8.538;2022-08-21T06:53:51;19.40;99.90
7516;DHT22;3799;47.184;8.538;2022-08-21T06:56:17;19.60;99.90
7516;DHT22;3799;47.184;8.538;2022-08-21T06:58:43;19.50;99.90
7516;DHT22;3799;47.184;8.538;2022-08-21T07:01:09;19.60;99.90
7516;DHT22;3799;47.184;8.538;2022-08-21T07:03:36;19.70;99.90
7516;DHT22;3799;47.184;8.538;2022-08-21T07:06:03;19.90;99.90
7516;DHT22;3799;47.184;8.538;2022-08-21T07:08:29;20.20;99.90
7516;DHT22;3799;47.184;8.538;2022-08-21T07:10:56;20.00;99.90
7516;DHT22;3799;47.184;8.538;2022-08-21T07:13:22;20.20;99.90
7516;DHT22;3799;47.184;8.538;2022-08-21T07:15:48;20.40;99.90
7516;DHT22;3799;47.184;8.538;2022-08-21T07:18:13;20.00;99.90
7516;DHT22;3799;47.184;8.538;2022-08-21T07:20:39;20.30;99.90
7516;DHT22;3799;47.184;8.538;2022-08-21T07:23:06;20.10;99.90
7516;DHT22;3799;47.184;8.538;2022-08-21T07:25:33;20.40;99.90
7516;DHT22;3799;47.184;8.538;2022-08-21T07:27:59;20.50;99.90
7516;DHT22;3799;47.184;8.538;2022-08-21T07:30:24;20.80;99.90
7516;DHT22;3799;47.184;8.538;2022-08-21T07:32:50;20.90;99.90
7516;DHT22;3799;47.184;8.538;2022-08-21T07:35:17;21.00;99.90
7516;DHT22;3799;47.184;8.538;2022-08-21T07:37:43;21.00;99.90
7516;DHT22;3799;47.184;8.538;2022-08-21T07:40:09;21.40;99.90
7516;DHT22;3799;47.184;8.538;2022-08-21T07:42:39;21.60;99.90
7516;DHT22;3799;47.184;8.538;2022-08-21T07:45:04;21.90;99.90
7516;DHT22;3799;47.184;8.538;2022-08-21T07:47:30;22.20;99.90
7516;DHT22;3799;47.184;8.538;2022-08-21T07:49:58;22.40;99.90
7516;DHT22;3799;47.184;8.538;2022-08-21T07:52:24;22.70;99.90
7516;DHT22;3799;47.184;8.538;2022-08-21T07:54:49;22.80;99.90
7516;DHT22;3799;47.184;8.538;2022-08-21T07:57:16;22.70;99.90
7516;DHT22;3799;47.184;8.538;2022-08-21T07:59:44;22.60;99.90
7516;DHT22;3799;47.184;8.538;2022-08-21T08:02:10;22.70;99.90
7516;DHT22;3799;47.184;8.538;2022-08-21T08:04:36;22.70;99.90
7516;DHT22;3799;47.184;8.538;2022-08-21T08:07:01;22.70;99.90
7516;DHT22;3799;47.184;8.538;2022-08-21T08:09:27;22.70;99.90
7516;DHT22;3799;47.184;8.538;2022-08-21T08:11:52;22.70;99.90
7516;DHT22;3799;47.184;8.538;2022-08-21T08:14:20;22.80;99.90
7516;DHT22;3799;47.184;8.538;2022-08-21T08:16:46;22.80;99.90
7516;DHT22;3799;47.184;8.538;2022-08-21T08:19:11;22.70;99.90
7516;DHT22;3799;47.184;8.538;2022-08-21T08:21:37;22.80;99.90
7516;DHT22;3799;47.184;8.538;2022-08-21T08:24:03;22.90;99.90
7516;DHT22;3799;47.184;8.538;2022-08-21T08:26:29;23.00;99.90
7516;DHT22;3799;47.184;8.538;2022-08-21T08:28:54;22.90;99.90
7516;DHT22;3799;47.184;8.538;2022-08-21T08:31:20;22.70;99.90
7516;DHT22;3799;47.184;8.538;2022-08-21T08:33:46;22.60;99.90
7516;DHT22;3799;47.184;8.538;2022-08-21T08:36:16;22.50;99.90
7516;DHT22;3799;47.184;8.538;2022-08-21T08:38:42;22.60;99.90
7516;DHT22;3799;47.184;8.538;2022-08-21T08:43:38;22.70;99.90
7516;DHT22;3799;47.184;8.538;2022-08-21T08:46:05;22.50;99.90
7516;DHT22;3799;47.184;8.538;2022-08-21T08:48:43;22.50;99.90
7516;DHT22;3799;47.184;8.538;2022-08-21T08:51:33;22.20;99.90
7516;DHT22;3799;47.184;8.538;2022-08-21T08:54:07;21.90;99.90
7516;DHT22;3799;47.184;8.538;2022-08-21T08:56:34;21.90;99.90
7516;DHT22;3799;47.184;8.538;2022-08-21T08:59:08;21.90;99.90
7516;DHT22;3799;47.184;8.538;2022-08-21T09:01:36;22.00;99.90
7516;DHT22;3799;47.184;8.538;2022-08-21T09:04:02;22.10;99.90
7516;DHT22;3799;47.184;8.538;2022-08-21T09:06:37;22.20;99.90
7516;DHT22;3799;47.184;8.538;2022-08-21T09:11:56;22.40;99.90
7516;DHT22;3799;47.184;8.538;2022-08-21T09:14:29;22.50;99.90
7516;DHT22;3799;47.184;8.538;2022-08-21T09:17:01;22.70;99.90
7516;DHT22;3799;47.184;8.538;2022-08-21T09:19:33;22.80;99.90
7516;DHT22;3799;47.184;8.538;2022-08-21T09:24:52;22.80;99.90
7516;DHT22;3799;47.184;8.538;2022-08-21T09:27:20;22.70;99.90
7516;DHT22;3799;47.184;8.538;2022-08-21T09:29:48;22.60;99.90
7516;DHT22;3799;47.184;8.538;2022-08-21T09:32:26;22.70;99.90
7516;DHT22;3799;47.184;8.538;2022-08-21T09:37:31;22.90;99.90
7516;DHT22;3799;47.184;8.538;2022-08-21T09:39:57;23.10;99.90
7516;DHT22;3799;47.184;8.538;2022-08-21T09:42:29;23.40;99.90
7516;DHT22;3799;47.184;8.538;2022-08-21T09:45:16;23.70;99.90
7516;DHT22;3799;47.184;8.538;2022-08-21T09:47:42;23.80;99.90
7516;DHT22;3799;47.184;8.538;2022-08-21T09:50:14;23.90;99.90
7516;DHT22;3799;47.184;8.538;2022-08-21T09:52:48;24.10;99.90
7516;DHT22;3799;47.184;8.538;2022-08-21T09:55:20;24.20;99.90
7516;DHT22;3799;47.184;8.538;2022-08-21T09:58:04;24.30;99.90
7516;DHT22;3799;47.184;8.538;2022-08-21T10:00:32;24.40;99.90
7516;DHT22;3799;47.184;8.538;2022-08-21T10:03:08;24.40;99.90
7516;DHT22;3799;47.184;8.538;2022-08-21T10:05:34;24.20;99.90
7516;DHT22;3799;47.184;8.538;2022-08-21T10:08:00;24.10;99.90
7516;DHT22;3799;47.184;8.538;2022-08-21T10:10:26;24.00;99.90
7516;DHT22;3799;47.184;8.538;2022-08-21T10:15:22;24.40;99.90
7516;DHT22;3799;47.184;8.538;2022-08-21T10:20:25;25.10;99.90
7516;DHT22;3799;47.184;8.538;2022-08-21T10:25:38;25.70;95.90
7516;DHT22;3799;47.184;8.538;2022-08-21T10:30:45;25.50;96.10
7516;DHT22;3799;47.184;8.538;2022-08-21T10:33:27;25.70;95.50
7516;DHT22;3799;47.184;8.538;2022-08-21T10:36:06;25.80;94.50
7516;DHT22;3799;47.184;8.538;2022-08-21T10:38:38;25.60;95.70
7516;DHT22;3799;47.184;8.538;2022-08-21T10:48:51;24.90;96.60
7516;DHT22;3799;47.184;8.538;2022-08-21T10:51:23;25.30;96.70
7516;DHT22;3799;47.184;8.538;2022-08-21T10:56:32;25.50;95.10
7516;DHT22;3799;47.184;8.538;2022-08-21T10:59:02;25.70;93.90
7516;DHT22;3799;47.184;8.538;2022-08-21T11:04:28;26.00;90.50
7516;DHT22;3799;47.184;8.538;2022-08-21T11:07:01;25.90;91.60
7516;DHT22;3799;47.184;8.538;2022-08-21T11:09:27;25.70;91.50
7516;DHT22;3799;47.184;8.538;2022-08-21T11:12:06;25.50;91.70
7516;DHT22;3799;47.184;8.538;2022-08-21T11:17:09;25.70;91.80
7516;DHT22;3799;47.184;8.538;2022-08-21T11:19:40;26.00;88.40
7516;DHT22;3799;47.184;8.538;2022-08-21T11:22:27;26.10;87.50
7516;DHT22;3799;47.184;8.538;2022-08-21T11:27:24;26.70;82.40
7516;DHT22;3799;47.184;8.538;2022-08-21T11:30:00;26.90;81.00
7516;DHT22;3799;47.184;8.538;2022-08-21T11:35:10;27.40;79.10
7516;DHT22;3799;47.184;8.538;2022-08-21T11:40:24;27.80;75.00
7516;DHT22;3799;47.184;8.538;2022-08-21T11:42:55;28.00;74.20
7516;DHT22;3799;47.184;8.538;2022-08-21T11:47:54;28.40;69.10
7516;DHT22;3799;47.184;8.538;2022-08-21T11:50:28;28.50;66.80
7516;DHT22;3799;47.184;8.538;2022-08-21T11:55:26;28.90;60.60
7516;DHT22;3799;47.184;8.538;2022-08-21T12:02:50;29.60;58.70
7516;DHT22;3799;47.184;8.538;2022-08-21T12:05:36;29.80;58.70
7516;DHT22;3799;47.184;8.538;2022-08-21T12:08:10;29.90;57.80
7516;DHT22;3799;47.184;8.538;2022-08-21T12:10:39;30.10;57.00
7516;DHT22;3799;47.184;8.538;2022-08-21T12:13:21;30.20;56.70
7516;DHT22;3799;47.184;8.538;2022-08-21T12:15:46;30.20;55.20
7516;DHT22;3799;47.184;8.538;2022-08-21T12:18:21;30.30;54.40
7516;DHT22;3799;47.184;8.538;2022-08-21T12:20:58;30.40;53.70
7516;DHT22;3799;47.184;8.538;2022-08-21T12:23:28;30.50;52.90
7516;DHT22;3799;47.184;8.538;2022-08-21T12:26:01;30.60;52.50
7516;DHT22;3799;47.184;8.538;2022-08-21T12:28:28;30.80;52.40
7516;DHT22;3799;47.184;8.538;2022-08-21T12:30:55;30.80;51.80
7516;DHT22;3799;47.184;8.538;2022-08-21T12:33:26;30.90;52.10
7516;DHT22;3799;47.184;8.538;2022-08-21T12:35:53;31.10;51.70
7516;DHT22;3799;47.184;8.538;2022-08-21T12:38:27;31.10;52.20
7516;DHT22;3799;47.184;8.538;2022-08-21T12:40:54;30.80;53.00
7516;DHT22;3799;47.184;8.538;2022-08-21T12:43:23;30.60;53.50
7516;DHT22;3799;47.184;8.538;2022-08-21T12:45:51;30.90;52.90
7516;DHT22;3799;47.184;8.538;2022-08-21T12:48:29;31.20;50.80
7516;DHT22;3799;47.184;8.538;2022-08-21T12:50:58;31.50;50.20
7516;DHT22;3799;47.184;8.538;2022-08-21T12:55:52;31.90;50.70
7516;DHT22;3799;47.184;8.538;2022-08-21T12:58:19;32.20;51.00
7516;DHT22;3799;47.184;8.538;2022-08-21T13:00:54;32.50;50.70
7516;DHT22;3799;47.184;8.538;2022-08-21T13:03:21;32.50;50.80
7516;DHT22;3799;47.184;8.538;2022-08-21T13:05:47;32.20;50.70
7516;DHT22;3799;47.184;8.538;2022-08-21T13:08:13;31.60;50.20
7516;DHT22;3799;47.184;8.538;2022-08-21T13:10:40;31.50;50.30
7516;DHT22;3799;47.184;8.538;2022-08-21T13:13:19;31.70;49.80
7516;DHT22;3799;47.184;8.538;2022-08-21T13:15:45;32.00;49.70
7516;DHT22;3799;47.184;8.538;2022-08-21T13:18:19;32.20;49.90
7516;DHT22;3799;47.184;8.538;2022-08-21T13:20:45;32.50;48.40
7516;DHT22;3799;47.184;8.538;2022-08-21T13:23:24;32.80;47.50
7516;DHT22;3799;47.184;8.538;2022-08-21T13:25:50;33.10;47.10
7516;DHT22;3799;47.184;8.538;2022-08-21T13:28:16;32.90;48.50
7516;DHT22;3799;47.184;8.538;2022-08-21T13:30:47;32.20;49.10
7516;DHT22;3799;47.184;8.538;2022-08-21T13:33:17;31.50;49.40
7516;DHT22;3799;47.184;8.538;2022-08-21T13:38:24;30.20;51.00
7516;DHT22;3799;47.184;8.538;2022-08-21T13:41:51;30.30;51.10
7516;DHT22;3799;47.184;8.538;2022-08-21T13:43:49;30.90;50.80
7516;DHT22;3799;47.184;8.538;2022-08-21T13:46:15;31.60;49.80
7516;DHT22;3799;47.184;8.538;2022-08-21T13:48:45;32.10;49.00
7516;DHT22;3799;47.184;8.538;2022-08-21T13:51:11;32.10;48.50
7516;DHT22;3799;47.184;8.538;2022-08-21T13:58:48;31.10;49.30
7516;DHT22;3799;47.184;8.538;2022-08-21T14:01:18;30.40;50.00
7516;DHT22;3799;47.184;8.538;2022-08-21T14:03:45;29.90;50.50
7516;DHT22;3799;47.184;8.538;2022-08-21T14:06:13;29.50;50.50
7516;DHT22;3799;47.184;8.538;2022-08-21T14:08:39;29.80;50.40
7516;DHT22;3799;47.184;8.538;2022-08-21T14:11:09;30.40;49.30
7516;DHT22;3799;47.184;8.538;2022-08-21T14:16:12;30.60;48.00
7516;DHT22;3799;47.184;8.538;2022-08-21T14:18:52;30.20;48.90
7516;DHT22;3799;47.184;8.538;2022-08-21T14:21:29;29.60;49.80
7516;DHT22;3799;47.184;8.538;2022-08-21T14:23:59;29.20;50.60
7516;DHT22;3799;47.184;8.538;2022-08-21T14:26:25;29.70;50.70
7516;DHT22;3799;47.184;8.538;2022-08-21T14:28:50;30.30;50.00
7516;DHT22;3799;47.184;8.538;2022-08-21T14:31:17;30.90;49.30
7516;DHT22;3799;47.184;8.538;2022-08-21T14:33:44;31.50;48.60
7516;DHT22;3799;47.184;8.538;2022-08-21T14:36:10;32.00;47.80
7516;DHT22;3799;47.184;8.538;2022-08-21T14:38:36;31.90;47.40
7516;DHT22;3799;47.184;8.538;2022-08-21T14:41:04;31.30;47.70
7516;DHT22;3799;47.184;8.538;2022-08-21T14:43:32;30.60;48.60
7516;DHT22;3799;47.184;8.538;2022-08-21T14:45:58;29.90;49.30
7516;DHT22;3799;47.184;8.538;2022-08-21T14:48:27;29.50;49.70
7516;DHT22;3799;47.184;8.538;2022-08-21T14:50:53;29.10;50.30
7516;DHT22;3799;47.184;8.538;2022-08-21T14:53:19;29.10;50.90
7516;DHT22;3799;47.184;8.538;2022-08-21T14:55:44;29.60;50.10
7516;DHT22;3799;47.184;8.538;2022-08-21T14:58:28;30.40;49.10
7516;DHT22;3799;47.184;8.538;2022-08-21T15:00:54;31.20;47.90
7516;DHT22;3799;47.184;8.538;2022-08-21T15:03:21;31.80;46.70
7516;DHT22;3799;47.184;8.538;2022-08-21T15:05:47;32.30;46.20
7516;DHT22;3799;47.184;8.538;2022-08-21T15:08:14;32.80;45.80
7516;DHT22;3799;47.184;8.538;2022-08-21T15:10:39;33.30;46.00
7516;DHT22;3799;47.184;8.538;2022-08-21T15:13:05;33.60;45.80
7516;DHT22;3799;47.184;8.538;2022-08-21T15:15:36;33.90;44.80
7516;DHT22;3799;47.184;8.538;2022-08-21T15:18:03;34.20;44.80
7516;DHT22;3799;47.184;8.538;2022-08-21T15:20:29;34.30;44.50
7516;DHT22;3799;47.184;8.538;2022-08-21T15:22:55;34.40;43.30
7516;DHT22;3799;47.184;8.538;2022-08-21T15:25:21;34.60;43.00
7516;DHT22;3799;47.184;8.538;2022-08-21T15:27:47;34.70;42.90
7516;DHT22;3799;47.184;8.538;2022-08-21T15:30:13;34.80;42.40
7516;DHT22;3799;47.184;8.538;2022-08-21T15:32:39;34.80;42.30
7516;DHT22;3799;47.184;8.538;2022-08-21T15:35:06;34.80;41.70
7516;DHT22;3799;47.184;8.538;2022-08-21T15:37:31;34.70;42.00
7516;DHT22;3799;47.184;8.538;2022-08-21T15:39:57;34.80;42.20
7516;DHT22;3799;47.184;8.538;2022-08-21T15:42:23;34.80;42.10
7516;DHT22;3799;47.184;8.538;2022-08-21T15:44:50;34.80;42.40
7516;DHT22;3799;47.184;8.538;2022-08-21T15:47:18;34.80;42.00
7516;DHT22;3799;47.184;8.538;2022-08-21T15:49:44;34.70;41.60
7516;DHT22;3799;47.184;8.538;2022-08-21T15:52:14;34.70;41.70
7516;DHT22;3799;47.184;8.538;2022-08-21T15:54:41;34.70;41.90
7516;DHT22;3799;47.184;8.538;2022-08-21T15:57:06;34.60;41.50
7516;DHT22;3799;47.184;8.538;2022-08-21T15:59:38;34.60;41.70
7516;DHT22;3799;47.184;8.538;2022-08-21T16:02:06;34.60;42.00
7516;DHT22;3799;47.184;8.538;2022-08-21T16:04:33;34.50;42.30
7516;DHT22;3799;47.184;8.538;2022-08-21T16:06:58;34.60;42.30
7516;DHT22;3799;47.184;8.538;2022-08-21T16:09:24;34.50;42.80
7516;DHT22;3799;47.184;8.538;2022-08-21T16:11:50;34.50;43.00
7516;DHT22;3799;47.184;8.538;2022-08-21T16:14:16;34.50;42.80
7516;DHT22;3799;47.184;8.538;2022-08-21T16:16:45;34.50;42.20
7516;DHT22;3799;47.184;8.538;2022-08-21T16:19:11;34.50;41.10
7516;DHT22;3799;47.184;8.538;2022-08-21T16:21:40;34.40;40.20
7516;DHT22;3799;47.184;8.538;2022-08-21T16:24:06;34.30;40.30
7516;DHT22;3799;47.184;8.538;2022-08-21T16:26:31;34.20;41.00
7516;DHT22;3799;47.184;8.538;2022-08-21T16:28:58;34.10;41.30
7516;DHT22;3799;47.184;8.538;2022-08-21T16:31:24;33.90;40.90
7516;DHT22;3799;47.184;8.538;2022-08-21T16:33:51;33.90;41.20
7516;DHT22;3799;47.184;8.538;2022-08-21T16:36:18;33.90;41.30
7516;DHT22;3799;47.184;8.538;2022-08-21T16:38:43;33.70;40.70
7516;DHT22;3799;47.184;8.538;2022-08-21T16:41:10;33.40;41.30
7516;DHT22;3799;47.184;8.538;2022-08-21T16:43:37;33.00;41.80
7516;DHT22;3799;47.184;8.538;2022-08-21T16:46:03;32.70;42.60
7516;DHT22;3799;47.184;8.538;2022-08-21T16:48:31;32.40;43.10
7516;DHT22;3799;47.184;8.538;2022-08-21T16:50:57;32.30;43.40
7516;DHT22;3799;47.184;8.538;2022-08-21T16:53:23;32.40;43.70
7516;DHT22;3799;47.184;8.538;2022-08-21T16:55:49;32.60;43.70
7516;DHT22;3799;47.184;8.538;2022-08-21T16:58:16;32.80;43.70
7516;DHT22;3799;47.184;8.538;2022-08-21T17:00:43;32.90;43.40
7516;DHT22;3799;47.184;8.538;2022-08-21T17:03:12;32.90;43.30
7516;DHT22;3799;47.184;8.538;2022-08-21T17:05:38;32.70;43.40
7516;DHT22;3799;47.184;8.538;2022-08-21T17:08:04;32.40;43.50
7516;DHT22;3799;47.184;8.538;2022-08-21T17:10:30;32.00;43.70
7516;DHT22;3799;47.184;8.538;2022-08-21T17:12:56;31.70;44.10